Time;durP1;ratioP1;P1;durP2;ratioP2;P2;SDS_P1;SDS_P2;PMS_P1;PMS_P2;Temp;Humidity;BMP_temperature;BMP_pressure;BME280_temperature;BME280_humidity;BME280_pressure;Samples;Min_cycle;Max_cycle;Signal;HPM_P1;HPM_P2
2023/09/18 00:00:24;;;;;;;21.23;13.38;;;;;;;18.39;100.00;100538.06;4896676;29;20024;-70
2023/09/18 00:02:50;;;;;;;21.73;14.13;;;;;;;18.44;100.00;100529.22;4896330;29;20052;-71
2023/09/18 00:05:15;;;;;;;22.38;14.70;;;;;;;18.36;100.00;100509.69;4896593;29;20412;-71
2023/09/18 00:07:44;;;;;;;21.52;13.98;;;;;;;18.39;100.00;100511.91;4897777;29;20123;-70
2023/09/18 00:10:11;;;;;;;21.15;14.57;;;;;;;18.38;100.00;100504.84;4896777;29;20591;-71
2023/09/18 00:12:36;;;;;;;24.05;16.33;;;;;;;18.37;100.00;100500.53;4896469;29;20111;-71
2023/09/18 00:15:02;;;;;;;23.33;15.15;;;;;;;18.36;100.00;100501.59;4896412;29;20119;-70
2023/09/18 00:17:28;;;;;;;21.42;14.13;;;;;;;18.36;100.00;100496.19;4896475;29;20040;-70
2023/09/18 00:19:53;;;;;;;21.83;12.75;;;;;;;18.36;100.00;100506.19;4896223;29;20037;-70
2023/09/18 00:22:19;;;;;;;24.60;14.52;;;;;;;18.37;100.00;100489.75;4896176;29;20088;-71
2023/09/18 00:24:45;;;;;;;21.27;13.30;;;;;;;18.31;100.00;100488.06;4896088;29;20036;-71
2023/09/18 00:27:11;;;;;;;21.17;14.90;;;;;;;18.34;100.00;100490.25;4896336;29;20033;-71
2023/09/18 00:29:36;;;;;;;23.13;15.23;;;;;;;18.30;100.00;100470.22;4896231;29;20504;-71
2023/09/18 00:32:02;;;;;;;22.73;15.10;;;;;;;18.34;100.00;100474.06;4896175;29;20139;-71
2023/09/18 00:34:29;;;;;;;21.23;12.98;;;;;;;18.32;100.00;100468.09;4896185;29;20044;-71
2023/09/18 00:36:54;;;;;;;20.67;13.30;;;;;;;18.33;100.00;100463.50;4895921;29;20024;-70
2023/09/18 00:39:20;;;;;;;21.45;13.18;;;;;;;18.31;100.00;100463.78;4896043;29;20669;-70
2023/09/18 00:41:49;;;;;;;22.05;13.82;;;;;;;18.31;100.00;100466.47;4895718;29;20028;-70
2023/09/18 00:44:14;;;;;;;20.63;14.18;;;;;;;18.29;100.00;100457.00;4895932;29;20326;-71
2023/09/18 00:46:40;;;;;;;21.90;14.27;;;;;;;18.26;100.00;100442.13;4895751;29;20052;-70
2023/09/18 00:49:05;;;;;;;21.73;13.77;;;;;;;18.26;100.00;100444.00;4895840;29;20068;-70
2023/09/18 00:51:32;;;;;;;22.38;14.05;;;;;;;18.26;100.00;100434.03;4879016;29;20088;-70
2023/09/18 00:53:59;;;;;;;20.67;13.52;;;;;;;18.27;100.00;100429.44;4895704;29;21053;-70
2023/09/18 00:56:24;;;;;;;20.02;13.20;;;;;;;18.28;100.00;100425.66;4895502;29;20040;-71
2023/09/18 00:58:51;;;;;;;22.50;14.25;;;;;;;18.29;100.00;100436.22;4895618;29;20047;-71
2023/09/18 01:01:22;;;;;;;20.55;13.43;;;;;;;18.34;100.00;100427.34;4895370;29;20530;-71
2023/09/18 01:03:49;;;;;;;22.98;14.88;;;;;;;18.35;100.00;100418.97;4895350;29;20114;-70
2023/09/18 01:06:15;;;;;;;21.90;12.85;;;;;;;18.38;100.00;100421.16;4894989;29;20036;-71
2023/09/18 01:08:40;;;;;;;22.90;13.43;;;;;;;18.41;100.00;100403.63;4895479;29;20096;-71
2023/09/18 01:11:44;;;;;;;22.98;13.90;;;;;;;18.44;100.00;100395.00;4878576;29;20036;-71
2023/09/18 01:14:20;;;;;;;20.77;13.18;;;;;;;18.51;100.00;100386.69;4832848;29;20124;-71
2023/09/18 01:16:55;;;;;;;22.17;12.98;;;;;;;18.48;100.00;100376.41;4895146;29;20034;-71
2023/09/18 01:19:46;;;;;;;22.67;13.80;;;;;;;18.52;100.00;100382.91;4895216;29;20095;-71
2023/09/18 01:22:14;;;;;;;21.08;13.75;;;;;;;18.54;100.00;100378.84;4894879;29;20109;-71
2023/09/18 01:24:41;;;;;;;21.27;14.35;;;;;;;18.50;100.00;100363.47;4895104;29;20045;-71
2023/09/18 01:27:09;;;;;;;21.90;13.27;;;;;;;18.57;100.00;100372.94;4895065;29;20120;-71
2023/09/18 01:29:35;;;;;;;18.80;11.95;;;;;;;18.62;100.00;100369.44;4895045;29;20109;-71
2023/09/18 01:32:00;;;;;;;19.58;12.63;;;;;;;18.65;100.00;100365.41;4895021;29;20641;-71
2023/09/18 01:34:37;;;;;;;20.15;12.65;;;;;;;18.66;100.00;100365.16;4895054;29;20136;-71
2023/09/18 01:37:07;;;;;;;20.27;12.98;;;;;;;18.70;100.00;100373.53;4894982;29;20029;-71
2023/09/18 01:39:34;;;;;;;21.13;14.13;;;;;;;18.73;100.00;100367.63;4877937;29;20093;-71
2023/09/18 01:42:07;;;;;;;19.17;11.70;;;;;;;18.77;100.00;100366.06;4894782;29;20024;-71
2023/09/18 01:44:33;;;;;;;20.80;12.07;;;;;;;18.80;100.00;100365.53;4894807;29;20400;-71
2023/09/18 01:47:01;;;;;;;22.70;11.98;;;;;;;18.85;100.00;100378.25;4894720;29;20040;-71
2023/09/18 01:49:32;;;;;;;18.70;9.93;;;;;;;18.85;100.00;100370.16;4894770;29;20052;-71
2023/09/18 01:51:57;;;;;;;17.10;9.85;;;;;;;18.92;100.00;100365.31;4894770;29;20032;-71
2023/09/18 01:54:24;;;;;;;16.70;9.38;;;;;;;18.94;100.00;100361.28;4893525;29;20065;-71
2023/09/18 01:56:49;;;;;;;16.80;10.10;;;;;;;18.99;100.00;100357.75;4894202;29;20124;-71
2023/09/18 01:59:15;;;;;;;19.35;9.88;;;;;;;18.99;100.00;100352.34;4894512;29;20072;-71
2023/09/18 02:01:41;;;;;;;15.80;8.98;;;;;;;19.03;100.00;100353.47;4894278;29;20079;-71
2023/09/18 02:04:06;;;;;;;17.85;9.13;;;;;;;19.06;100.00;100358.34;4894486;29;20063;-71
2023/09/18 02:06:31;;;;;;;15.35;9.05;;;;;;;19.04;100.00;100355.06;4894361;29;20448;-70
2023/09/18 02:08:57;;;;;;;13.93;8.18;;;;;;;19.08;100.00;100352.69;4893320;29;20032;-70
2023/09/18 02:11:22;;;;;;;15.05;9.13;;;;;;;19.10;100.00;100356.75;4893258;29;20040;-70
2023/09/18 02:13:47;;;;;;;18.02;9.05;;;;;;;19.07;100.00;100349.13;4894453;29;20084;-70
2023/09/18 02:16:13;;;;;;;15.10;8.07;;;;;;;19.14;100.00;100344.31;4894436;29;20391;-71
2023/09/18 02:18:38;;;;;;;16.92;8.45;;;;;;;19.16;100.00;100341.34;4893453;29;20583;-70
2023/09/18 02:21:04;;;;;;;14.57;7.50;;;;;;;19.15;100.00;100340.53;4894401;29;20097;-70
2023/09/18 02:23:29;;;;;;;14.43;7.70;;;;;;;19.17;100.00;100330.25;4894125;29;20048;-70
2023/09/18 02:25:58;;;;;;;16.65;7.88;;;;;;;19.17;100.00;100322.13;4894358;29;20076;-70
2023/09/18 02:28:24;;;;;;;14.63;7.90;;;;;;;19.17;100.00;100332.13;4894364;29;20045;-71
2023/09/18 02:30:49;;;;;;;16.15;7.40;;;;;;;19.18;100.00;100333.78;4877307;29;20097;-71
2023/09/18 02:33:15;;;;;;;14.85;7.90;;;;;;;19.17;100.00;100330.25;4894257;29;20796;-70
2023/09/18 02:35:41;;;;;;;12.57;7.68;;;;;;;19.17;100.00;100324.03;4877563;29;20449;-70
2023/09/18 02:38:06;;;;;;;17.40;8.20;;;;;;;19.16;100.00;100320.53;4894231;29;20040;-70
2023/09/18 02:40:31;;;;;;;12.38;7.70;;;;;;;19.17;100.00;100310.50;4894093;29;20123;-71
2023/09/18 02:42:57;;;;;;;15.35;7.13;;;;;;;19.18;100.00;100298.63;4877115;29;20036;-71
2023/09/18 02:45:22;;;;;;;13.52;7.90;;;;;;;19.19;100.00;100284.84;4892928;29;20044;-71
2023/09/18 02:47:48;;;;;;;15.02;7.65;;;;;;;19.21;100.00;100276.47;4877261;29;20084;-71
2023/09/18 02:50:13;;;;;;;12.00;6.20;;;;;;;19.20;100.00;100272.13;4894004;29;20083;-71
2023/09/18 02:52:39;;;;;;;13.55;6.60;;;;;;;19.20;100.00;100278.38;4894016;29;20040;-70
2023/09/18 02:55:04;;;;;;;15.73;7.70;;;;;;;19.19;100.00;100276.72;4894168;29;20044;-71
2023/09/18 02:57:30;;;;;;;14.15;6.90;;;;;;;19.15;100.00;100258.59;4894083;29;20072;-71
2023/09/18 02:59:55;;;;;;;15.80;7.43;;;;;;;19.16;100.00;100268.34;4894124;29;20044;-71
2023/09/18 03:02:21;;;;;;;13.23;6.80;;;;;;;19.13;100.00;100260.78;4876551;29;20060;-71
2023/09/18 03:04:46;;;;;;;17.25;7.18;;;;;;;19.14;100.00;100276.72;4893235;29;20092;-70
2023/09/18 03:07:16;;;;;;;14.75;6.50;;;;;;;19.12;100.00;100269.94;4893087;29;20040;-71
2023/09/18 03:09:41;;;;;;;15.73;8.02;;;;;;;19.11;100.00;100254.81;4893021;29;20392;-71
2023/09/18 03:12:07;;;;;;;13.57;7.95;;;;;;;19.05;100.00;100240.50;4893006;29;20036;-71
2023/09/18 03:14:32;;;;;;;13.00;6.30;;;;;;;19.10;100.00;100245.91;4892997;29;20524;-71
2023/09/18 03:16:57;;;;;;;12.93;6.30;;;;;;;19.14;100.00;100257.00;4891629;29;20032;-71
2023/09/18 03:19:24;;;;;;;11.07;6.10;;;;;;;19.15;100.00;100262.13;4892887;29;20036;-70
2023/09/18 03:21:50;;;;;;;14.10;6.05;;;;;;;19.16;100.00;100249.44;4891540;29;20539;-71
2023/09/18 03:24:15;;;;;;;11.07;5.82;;;;;;;19.17;100.00;100224.81;4892781;29;20036;-71
2023/09/18 03:26:41;;;;;;;10.85;6.32;;;;;;;19.18;100.00;100231.84;4892729;29;20040;-70
2023/09/18 03:29:06;;;;;;;10.93;6.07;;;;;;;19.22;100.00;100253.75;4892925;29;20120;-71
2023/09/18 03:31:31;;;;;;;15.50;7.00;;;;;;;19.25;100.00;100250.50;4896008;29;20032;-70
2023/09/18 03:33:57;;;;;;;17.67;7.32;;;;;;;19.26;100.00;100244.84;4896128;29;20113;-71
2023/09/18 03:36:25;;;;;;;12.15;5.82;;;;;;;19.24;100.00;100241.59;4896007;29;20383;-71
2023/09/18 03:38:50;;;;;;;13.60;6.75;;;;;;;19.26;100.00;100238.63;4895919;29;20396;-71
2023/09/18 03:41:16;;;;;;;12.38;6.25;;;;;;;19.25;100.00;100253.22;4895804;29;20029;-70
2023/09/18 03:43:41;;;;;;;16.08;7.18;;;;;;;19.29;100.00;100262.41;4894472;29;20032;-70
2023/09/18 03:46:07;;;;;;;16.40;7.38;;;;;;;19.30;100.00;100238.88;4895809;29;20041;-70
2023/09/18 03:48:37;;;;;;;16.90;8.02;;;;;;;19.32;100.00;100237.53;4895830;29;20447;-71
2023/09/18 03:51:05;;;;;;;11.70;5.55;;;;;;;19.34;100.00;100238.09;4895709;29;20495;-70
2023/09/18 03:53:33;;;;;;;10.00;5.10;;;;;;;19.35;100.00;100249.72;4895623;29;20108;-71
2023/09/18 03:55:58;;;;;;;9.90;5.30;;;;;;;19.35;100.00;100258.63;4895395;29;20361;-71
2023/09/18 03:58:24;;;;;;;13.68;5.85;;;;;;;19.35;100.00;100264.03;4895664;29;20061;-70
2023/09/18 04:00:49;;;;;;;10.57;5.13;;;;;;;19.36;100.00;100254.03;4878631;29;20036;-70
2023/09/18 04:03:15;;;;;;;12.68;5.80;;;;;;;19.37;100.00;100261.06;4859082;29;1107172;-70
2023/09/18 04:05:40;;;;;;;11.48;6.03;;;;;;;19.35;100.00;100255.91;4896423;29;20563;-71
2023/09/18 04:08:05;;;;;;;15.07;6.22;;;;;;;19.39;100.00;100245.41;4896418;29;20054;-70
2023/09/18 04:10:31;;;;;;;11.63;5.32;;;;;;;19.37;100.00;100229.44;4896584;29;20071;-71
2023/09/18 04:12:56;;;;;;;16.83;5.75;;;;;;;19.37;100.00;100234.84;4895245;29;20040;-70
2023/09/18 04:15:23;;;;;;;11.93;6.03;;;;;;;19.40;100.00;100233.50;4896306;29;20052;-71
2023/09/18 04:17:48;;;;;;;12.02;5.43;;;;;;;19.36;100.00;100244.03;4879452;29;20354;-70
2023/09/18 04:20:14;;;;;;;15.07;5.88;;;;;;;19.35;100.00;100236.19;4896243;29;20035;-71
2023/09/18 04:22:49;;;;;;;16.33;5.68;;;;;;;19.41;100.00;100259.44;4896180;29;20035;-71
2023/09/18 04:25:15;;;;;;;12.75;6.20;;;;;;;19.40;100.00;100265.94;4896112;29;20412;-70
2023/09/18 04:27:40;;;;;;;10.57;5.22;;;;;;;19.34;100.00;100251.59;4896046;29;20037;-71
2023/09/18 04:30:09;;;;;;;16.13;6.43;;;;;;;19.35;100.00;100255.13;4896083;29;20465;-71
2023/09/18 04:32:37;;;;;;;14.48;6.30;;;;;;;19.35;100.00;100255.91;4896131;29;20025;-71
2023/09/18 04:35:05;;;;;;;12.30;5.22;;;;;;;19.32;100.00;100237.53;4895958;29;20033;-71
2023/09/18 04:37:30;;;;;;;10.52;5.80;;;;;;;19.31;100.00;100241.34;4896044;29;20101;-70
2023/09/18 04:39:57;;;;;;;12.73;6.10;;;;;;;19.29;100.00;100218.34;4896010;29;20438;-70
2023/09/18 04:42:23;;;;;;;15.32;6.18;;;;;;;19.28;100.00;100222.91;4895142;29;20024;-70
2023/09/18 04:44:48;;;;;;;12.50;6.20;;;;;;;19.25;100.00;100210.75;4879046;29;20123;-70
2023/09/18 04:47:13;;;;;;;10.10;5.72;;;;;;;19.21;100.00;100206.19;4895941;29;20032;-71
2023/09/18 04:49:39;;;;;;;10.70;5.68;;;;;;;19.22;100.00;100199.69;4895809;29;20086;-70
2023/09/18 04:52:05;;;;;;;13.07;6.13;;;;;;;19.18;100.00;100177.78;4895743;29;20028;-70
2023/09/18 04:54:30;;;;;;;9.18;5.65;;;;;;;19.17;100.00;100180.75;4895731;29;20036;-70
2023/09/18 04:56:56;;;;;;;14.35;7.68;;;;;;;19.17;100.00;100176.16;4895535;29;20354;-70
2023/09/18 04:59:21;;;;;;;15.50;7.38;;;;;;;19.15;100.00;100154.00;4895506;29;20028;-70
2023/09/18 05:01:47;;;;;;;11.95;6.07;;;;;;;19.12;100.00;100153.72;4895182;29;20155;-70
2023/09/18 05:04:12;;;;;;;13.68;6.53;;;;;;;19.13;100.00;100149.94;4895407;29;20144;-70
2023/09/18 05:06:39;;;;;;;13.75;6.88;;;;;;;19.11;100.00;100150.22;4895493;29;20051;-70
2023/09/18 05:09:05;;;;;;;16.35;8.25;;;;;;;19.11;100.00;100157.50;4895497;29;20036;-70
2023/09/18 05:11:31;;;;;;;11.20;6.43;;;;;;;19.11;100.00;100152.91;4895263;29;20037;-70
2023/09/18 05:13:56;;;;;;;15.73;6.32;;;;;;;19.10;100.00;100153.16;4896475;29;20029;-70
2023/09/18 05:16:22;;;;;;;12.95;6.38;;;;;;;19.09;100.00;100156.97;4895309;29;20444;-70
2023/09/18 05:18:47;;;;;;;13.43;6.82;;;;;;;19.08;100.00;100158.88;4895340;29;20119;-70
2023/09/18 05:21:12;;;;;;;14.13;6.45;;;;;;;19.05;100.00;100159.41;4895077;29;20127;-71
2023/09/18 05:23:38;;;;;;;14.70;6.53;;;;;;;19.08;100.00;100160.75;4893899;29;20028;-70
2023/09/18 05:26:04;;;;;;;12.35;6.60;;;;;;;19.07;100.00;100161.81;4895041;29;20088;-70
2023/09/18 05:28:30;;;;;;;28.25;6.88;;;;;;;19.03;100.00;100159.66;4878209;29;20081;-70
2023/09/18 05:30:55;;;;;;;15.43;5.80;;;;;;;19.00;100.00;100157.50;4894065;29;20127;-70
2023/09/18 05:33:20;;;;;;;13.15;5.25;;;;;;;19.00;100.00;100157.50;4892599;29;20064;-71
2023/09/18 05:35:46;;;;;;;11.82;4.43;;;;;;;19.01;100.00;100185.34;4894169;29;20040;-70
2023/09/18 05:38:13;;;;;;;9.43;5.53;;;;;;;18.98;100.00;100181.28;4894372;29;20502;-70
2023/09/18 05:40:39;;;;;;;10.25;4.82;;;;;;;18.98;100.00;100186.69;4894584;29;20396;-70
2023/09/18 05:43:05;;;;;;;8.93;5.15;;;;;;;18.96;100.00;100186.13;4877721;29;20021;-70
2023/09/18 05:45:31;;;;;;;9.00;4.63;;;;;;;18.96;100.00;100185.34;4877537;29;20424;-70
2023/09/18 05:48:06;;;;;;;6.88;3.55;;;;;;;18.97;100.00;100197.78;4894687;29;20036;-71
2023/09/18 05:50:33;;;;;;;4.63;3.03;;;;;;;18.97;100.00;100184.28;4894059;29;20087;-70
2023/09/18 05:53:00;;;;;;;4.57;2.65;;;;;;;18.96;100.00;100191.53;4893376;29;20484;-70
2023/09/18 05:55:26;;;;;;;5.88;2.85;;;;;;;18.99;100.00;100212.66;4893416;29;20025;-70
2023/09/18 05:57:53;;;;;;;6.18;2.97;;;;;;;19.01;100.00;100207.75;4893292;29;20036;-71
2023/09/18 06:00:18;;;;;;;4.57;2.78;;;;;;;19.02;100.00;100205.88;4894434;29;20048;-71
2023/09/18 06:02:45;;;;;;;3.47;2.15;;;;;;;19.03;100.00;100210.22;4893905;29;20115;-71
2023/09/18 06:05:15;;;;;;;4.72;3.17;;;;;;;19.05;100.00;100211.56;4877758;29;20040;-71
2023/09/18 06:07:41;;;;;;;6.57;2.95;;;;;;;19.07;100.00;100229.41;4894578;29;20028;-71
2023/09/18 06:10:07;;;;;;;5.03;2.38;;;;;;;19.04;100.00;100220.75;4894159;29;20028;-70
2023/09/18 06:12:32;;;;;;;2.92;2.10;;;;;;;19.07;100.00;100226.69;4894338;29;20104;-70
2023/09/18 06:14:58;;;;;;;5.22;3.13;;;;;;;19.08;100.00;100244.56;4894322;29;20032;-70
2023/09/18 06:17:24;;;;;;;3.83;1.98;;;;;;;19.06;100.00;100239.41;4894258;29;20396;-71
2023/09/18 06:19:49;;;;;;;5.57;2.10;;;;;;;19.08;100.00;100255.38;4894077;29;20032;-70
2023/09/18 06:22:15;;;;;;;6.55;2.58;;;;;;;19.07;100.00;100254.53;4894039;29;20388;-71
2023/09/18 06:24:40;;;;;;;4.25;1.70;;;;;;;19.05;100.00;100245.91;4894013;29;20052;-71
2023/09/18 06:27:06;;;;;;;3.38;1.70;;;;;;;19.05;100.00;100245.91;4894062;29;20029;-71
2023/09/18 06:29:32;;;;;;;3.65;2.08;;;;;;;19.02;100.00;100247.25;4894047;29;20036;-71
2023/09/18 06:31:58;;;;;;;5.25;1.40;;;;;;;19.02;100.00;100247.25;4894067;29;20028;-71
2023/09/18 06:34:23;;;;;;;7.20;1.75;;;;;;;19.02;100.00;100257.22;4893859;29;20123;-71
2023/09/18 06:36:49;;;;;;;5.32;2.05;;;;;;;19.01;100.00;100261.81;4893098;29;20067;-71
2023/09/18 06:39:15;;;;;;;3.13;1.38;;;;;;;18.98;100.00;100256.94;4893796;29;20036;-70
2023/09/18 06:41:40;;;;;;;3.63;1.45;;;;;;;18.96;100.00;100252.91;4893751;29;20055;-70
2023/09/18 06:44:06;;;;;;;5.45;1.67;;;;;;;18.99;100.00;100253.19;4893854;29;20553;-70
2023/09/18 06:46:31;;;;;;;3.10;1.40;;;;;;;19.00;100.00;100271.03;4893931;29;20485;-70
2023/09/18 06:48:57;;;;;;;5.05;2.08;;;;;;;19.01;100.00;100282.63;4893918;29;20395;-70
2023/09/18 06:51:27;;;;;;;3.70;1.60;;;;;;;19.02;100.00;100284.25;4893970;29;20477;-70
2023/09/18 06:53:52;;;;;;;3.58;1.58;;;;;;;19.02;100.00;100292.34;4893725;29;20036;-70
2023/09/18 06:56:18;;;;;;;3.03;2.20;;;;;;;19.07;100.00;100284.25;4893870;29;20124;-70
2023/09/18 06:58:43;;;;;;;3.17;1.40;;;;;;;19.05;100.00;100276.44;4893781;29;20040;-71
2023/09/18 07:01:09;;;;;;;3.92;2.28;;;;;;;19.11;100.00;100289.97;4861726;29;20484;-70
2023/09/18 07:03:36;;;;;;;2.65;1.48;;;;;;;19.12;100.00;100286.97;4893751;29;20057;-70
2023/09/18 07:06:02;;;;;;;2.78;2.25;;;;;;;19.16;100.00;100288.09;4896729;29;20503;-70
2023/09/18 07:08:28;;;;;;;3.55;1.70;;;;;;;19.18;100.00;100287.81;4897477;29;20062;-71
2023/09/18 07:10:53;;;;;;;3.83;1.70;;;;;;;19.17;100.00;100283.47;4897034;29;20037;-70
2023/09/18 07:13:18;;;;;;;3.42;1.67;;;;;;;19.17;100.00;100281.59;4897063;29;20032;-71
2023/09/18 07:15:44;;;;;;;1.45;1.30;;;;;;;19.20;100.00;100274.84;4880248;29;20045;-70
2023/09/18 07:18:14;;;;;;;2.75;1.30;;;;;;;19.19;100.00;100276.72;4897373;29;20064;-71
2023/09/18 07:20:45;;;;;;;4.10;1.48;;;;;;;19.18;100.00;100285.94;4897274;29;20483;-70
2023/09/18 07:23:11;;;;;;;2.47;1.73;;;;;;;19.18;100.00;100285.13;4897006;29;20395;-70
2023/09/18 07:25:39;;;;;;;2.35;1.48;;;;;;;19.18;100.00;100283.22;4897086;29;20037;-70
2023/09/18 07:28:08;;;;;;;4.03;1.52;;;;;;;19.16;100.00;100290.78;4896850;29;20036;-71
2023/09/18 07:30:33;;;;;;;1.80;1.70;;;;;;;19.17;100.00;100295.09;4897101;29;20040;-71
2023/09/18 07:33:00;;;;;;;3.47;1.58;;;;;;;19.14;100.00;100302.94;4897025;29;20093;-71
2023/09/18 07:35:26;;;;;;;4.55;1.80;;;;;;;19.15;100.00;100308.09;4896902;29;20032;-70
2023/09/18 07:37:51;;;;;;;3.25;1.75;;;;;;;19.17;100.00;100307.81;4879976;29;20047;-70
2023/09/18 07:40:17;;;;;;;6.05;2.47;;;;;;;19.19;100.00;100319.19;4896717;29;20040;-70
2023/09/18 07:42:45;;;;;;;4.25;1.65;;;;;;;19.19;100.00;100317.28;4879783;29;20040;-70
2023/09/18 07:45:11;;;;;;;4.00;1.35;;;;;;;19.24;100.00;100297.56;4897140;29;20032;-70
2023/09/18 07:47:36;;;;;;;7.43;2.20;;;;;;;19.23;100.00;100299.47;4896678;29;20045;-70
2023/09/18 07:50:02;;;;;;;2.78;1.42;;;;;;;19.23;100.00;100294.06;4896577;29;20047;-70
2023/09/18 07:52:29;;;;;;;3.90;1.75;;;;;;;19.26;100.00;100306.22;4879810;29;20059;-70
2023/09/18 07:54:54;;;;;;;3.67;1.50;;;;;;;19.22;100.00;100305.13;4896529;29;20810;-70
2023/09/18 07:57:20;;;;;;;3.65;1.52;;;;;;;19.32;100.00;100313.25;4896122;29;20044;-70
2023/09/18 07:59:46;;;;;;;3.50;2.50;;;;;;;19.35;100.00;100311.91;4896457;29;20032;-70
2023/09/18 08:02:11;;;;;;;4.75;1.85;;;;;;;19.35;100.00;100301.09;4896199;29;20048;-70
2023/09/18 08:04:37;;;;;;;2.83;1.40;;;;;;;19.35;100.00;100301.91;4896358;29;20039;-70
2023/09/18 08:07:05;;;;;;;3.33;1.38;;;;;;;19.36;100.00;100303.53;4896440;29;20396;-70
2023/09/18 08:09:30;;;;;;;2.67;1.67;;;;;;;19.36;100.00;100317.06;4896549;29;20036;-70
2023/09/18 08:11:55;;;;;;;3.97;1.77;;;;;;;19.36;100.00;100302.69;4896001;29;20462;-71
2023/09/18 08:14:23;;;;;;;2.58;1.92;;;;;;;19.36;100.00;100305.41;4896528;29;20050;-70
2023/09/18 08:16:56;;;;;;;2.92;2.05;;;;;;;19.41;100.00;100300.00;4896050;29;20036;-70
2023/09/18 08:19:23;;;;;;;4.43;2.42;;;;;;;19.41;100.00;100306.25;4896070;29;20025;-70
2023/09/18 08:21:48;;;;;;;4.35;1.80;;;;;;;19.42;100.00;100309.75;4896249;29;20025;-70
2023/09/18 08:24:14;;;;;;;5.03;2.20;;;;;;;19.45;100.00;100309.22;4896031;29;20060;-70
2023/09/18 08:26:39;;;;;;;4.80;2.40;;;;;;;19.49;100.00;100308.41;4895913;29;20040;-70
2023/09/18 08:29:04;;;;;;;6.38;2.15;;;;;;;19.56;100.00;100312.75;4894648;29;20043;-70
2023/09/18 08:31:31;;;;;;;4.40;1.65;;;;;;;19.60;100.00;100328.16;4896025;29;20392;-70
2023/09/18 08:33:57;;;;;;;3.05;1.70;;;;;;;19.72;100.00;100327.91;4896025;29;20036;-70
2023/09/18 08:36:22;;;;;;;7.47;1.92;;;;;;;19.84;100.00;100342.00;4895857;29;20025;-70
2023/09/18 08:38:48;;;;;;;4.20;1.85;;;;;;;19.87;100.00;100352.28;4895766;29;21015;-70
2023/09/18 08:41:17;;;;;;;2.35;1.75;;;;;;;19.85;100.00;100348.22;4895681;29;20044;-70
2023/09/18 08:43:44;;;;;;;4.38;1.40;;;;;;;19.79;100.00;100350.13;4895425;29;20047;-70
2023/09/18 08:46:09;;;;;;;3.38;1.65;;;;;;;19.83;100.00;100350.38;4895947;29;20457;-71
2023/09/18 08:48:36;;;;;;;5.18;2.45;;;;;;;19.82;100.00;100360.41;4895617;29;20139;-69
2023/09/18 08:51:04;;;;;;;3.30;2.00;;;;;;;19.81;100.00;100363.41;4895491;29;20122;-70
2023/09/18 08:53:34;;;;;;;2.40;1.58;;;;;;;19.87;100.00;100359.59;4895441;29;20108;-69
2023/09/18 08:56:01;;;;;;;4.10;1.70;;;;;;;19.89;100.00;100360.94;4895457;29;20040;-69
2023/09/18 08:58:31;;;;;;;2.55;1.83;;;;;;;19.85;100.00;100359.03;4895350;29;20037;-68
2023/09/18 09:00:57;;;;;;;6.93;1.98;;;;;;;19.91;100.00;100352.53;4895261;29;20051;-70
2023/09/18 09:03:23;;;;;;;4.00;1.83;;;;;;;19.91;100.00;100353.38;4895168;29;20408;-70
2023/09/18 09:05:48;;;;;;;4.38;2.13;;;;;;;19.99;100.00;100360.16;4895212;29;20395;-70
2023/09/18 09:08:14;;;;;;;2.03;1.42;;;;;;;20.01;100.00;100362.56;4863125;29;20056;-70
2023/09/18 09:10:40;;;;;;;4.25;2.33;;;;;;;20.00;100.00;100355.53;4894931;29;20028;-70
2023/09/18 09:13:05;;;;;;;4.00;1.88;;;;;;;20.10;100.00;100345.50;4895346;29;20480;-70
2023/09/18 09:15:47;;;;;;;8.57;1.98;;;;;;;20.22;100.00;100345.22;4895014;29;20040;-70
2023/09/18 09:18:17;;;;;;;3.17;1.70;;;;;;;20.28;100.00;100344.13;4895080;29;20508;-70
2023/09/18 09:20:59;;;;;;;5.70;1.75;;;;;;;20.50;100.00;100360.06;4894873;29;20032;-71
2023/09/18 09:23:26;;;;;;;5.60;2.20;;;;;;;20.72;100.00;100356.22;4895066;29;20056;-71
2023/09/18 09:25:51;;;;;;;5.65;2.25;;;;;;;20.74;100.00;100354.06;4895029;29;20032;-70
2023/09/18 09:28:29;;;;;;;3.65;1.75;;;;;;;20.86;100.00;100359.97;4894662;29;20123;-70
2023/09/18 09:31:02;;;;;;;3.42;1.98;;;;;;;20.82;100.00;100356.19;4894825;29;20392;-70
2023/09/18 09:33:27;;;;;;;5.00;2.42;;;;;;;20.96;100.00;100364.56;4894556;29;20039;-70
2023/09/18 09:35:52;;;;;;;4.43;2.17;;;;;;;21.04;100.00;100363.97;4894684;29;20032;-70
2023/09/18 09:38:20;;;;;;;5.32;2.42;;;;;;;21.13;100.00;100362.28;4894623;29;20066;-70
2023/09/18 09:40:46;;;;;;;5.18;2.75;;;;;;;21.34;100.00;100378.47;4874064;29;20032;-71
2023/09/18 09:43:14;;;;;;;6.28;2.63;;;;;;;21.36;100.00;100377.09;4887619;29;20373;-70
2023/09/18 09:45:40;;;;;;;5.90;2.33;;;;;;;21.43;100.00;100383.06;4887339;29;20037;-71
2023/09/18 09:48:06;;;;;;;7.05;2.63;;;;;;;21.46;100.00;100384.41;4887317;29;20093;-70
2023/09/18 09:50:32;;;;;;;6.07;2.70;;;;;;;21.41;100.00;100373.56;4886563;29;20087;-70
2023/09/18 09:52:59;;;;;;;6.97;3.25;;;;;;;21.39;100.00;100386.59;4886920;29;20072;-70
2023/09/18 09:55:37;;;;;;;6.05;2.70;;;;;;;21.41;100.00;100376.28;4886739;29;20111;-71
2023/09/18 09:58:07;;;;;;;4.07;2.33;;;;;;;21.48;100.00;100375.97;4886571;29;20083;-70
2023/09/18 10:00:45;;;;;;;11.60;3.42;;;;;;;21.53;100.00;100376.72;4886900;29;20702;-68
2023/09/18 10:03:17;;;;;;;7.35;2.88;;;;;;;21.45;100.00;100370.00;4885547;29;20108;-69
2023/09/18 10:05:44;;;;;;;5.57;2.58;;;;;;;21.46;100.00;100376.25;4870150;29;20032;-70
2023/09/18 10:08:14;;;;;;;4.13;2.58;;;;;;;21.51;100.00;100380.81;4886733;29;20044;-70
2023/09/18 10:10:45;;;;;;;4.70;2.13;;;;;;;21.54;100.00;100399.28;4886494;29;20036;-70
2023/09/18 10:13:17;;;;;;;7.50;2.70;;;;;;;21.54;100.00;100399.28;4887026;29;20029;-70
2023/09/18 10:15:43;;;;;;;7.68;3.40;;;;;;;21.46;100.00;100406.09;4887010;29;20463;-67
2023/09/18 10:18:35;;;;;;;6.88;2.33;;;;;;;21.37;100.00;100411.25;4885023;29;20144;-69
2023/09/18 10:21:20;;;;;;;6.38;2.70;;;;;;;21.29;100.00;100419.97;4850987;29;20040;-74
2023/09/18 10:24:15;;;;;;;3.80;2.15;;;;;;;21.20;100.00;100405.41;4886957;29;20033;-71
2023/09/18 10:27:00;;;;;;;5.07;2.30;;;;;;;21.26;100.00;100419.75;4886667;29;20043;-74
2023/09/18 10:29:27;;;;;;;3.85;2.22;;;;;;;21.21;100.00;100421.38;4886556;29;20033;-72
2023/09/18 10:31:54;;;;;;;9.45;3.00;;;;;;;21.16;100.00;100421.41;4885553;29;20148;-69
2023/09/18 10:34:20;;;;;;;5.50;2.40;;;;;;;21.11;100.00;100412.47;4886848;29;20283;-70
2023/09/18 10:36:48;;;;;;;7.93;2.75;;;;;;;21.05;100.00;100402.75;4886896;29;20036;-70
2023/09/18 10:39:19;;;;;;;4.18;2.28;;;;;;;21.06;100.00;100398.94;4886613;29;20044;-70
2023/09/18 10:41:46;;;;;;;5.60;3.30;;;;;;;21.22;100.00;100393.19;4889812;29;20543;-70
2023/09/18 10:44:12;;;;;;;5.90;2.42;;;;;;;21.48;100.00;100398.47;4889802;29;20496;-70
2023/09/18 10:46:37;;;;;;;8.45;2.95;;;;;;;21.68;100.00;100400.25;4890251;29;20028;-70
2023/09/18 10:49:03;;;;;;;6.65;2.47;;;;;;;21.85;100.00;100395.25;4890338;29;20036;-70
2023/09/18 10:51:31;;;;;;;4.15;2.72;;;;;;;22.04;100.00;100391.84;4890131;29;20029;-70
2023/09/18 10:53:56;;;;;;;3.85;2.65;;;;;;;22.16;100.00;100392.28;4890260;29;20028;-70
2023/09/18 10:56:22;;;;;;;3.25;2.33;;;;;;;22.08;100.00;100392.88;4890335;29;20058;-70
2023/09/18 10:58:56;;;;;;;7.28;2.85;;;;;;;22.05;100.00;100388.84;4888801;29;20024;-70
2023/09/18 11:01:23;;;;;;;5.75;4.30;;;;;;;21.97;100.00;100380.50;4890118;29;20036;-69
2023/09/18 11:03:50;;;;;;;5.55;2.42;;;;;;;21.76;100.00;100377.13;4890015;29;20960;-70
2023/09/18 11:06:17;;;;;;;4.93;2.25;;;;;;;21.59;100.00;100374.81;4890343;29;20052;-71
2023/09/18 11:08:48;;;;;;;7.20;3.13;;;;;;;21.42;100.00;100376.00;4890491;29;20028;-71
2023/09/18 11:11:20;;;;;;;4.38;2.50;;;;;;;21.26;100.00;100385.28;4889141;29;20032;-71